Motoplanete

Classement Portugal Superbike 2008

Course disputée sur le circuit de Portimao

1

Position Numéro Pilote Team Temps Tours Points Départ
1 21 Troy Bayliss Ducati Xeros Team 23:46:13 22 25 1
2 7 Carlos Checa Hannspree Ten Kate Honda 00:23:00 22 20 11
3 11 Troy Corser Yamaha Motor Italia Wsb Team 01:42:25 22 16 7
4 65 Jonathan Rea Hannspree Honda Althea 04:00:01 22 13 3
5 10 Fonsi Nieto Team Suzuki Alstare 04:14:59 22 11 16
6 36 Gregorio Lavilla Ventaxia Vk Honda 04:48:45 22 10 17
7 91 Leon Haslam HM Plant Honda 05:01:52 22 9 6
8 23 Ryuichi Kiyonari Hannspree Ten Kate Honda 05:35:15 22 8 19
9 111 Ruben Xaus Sterilgarda Go Eleven 08:39:51 22 7 8
10 55 Regis Laconi Kawasaki Psg-1 Corse 08:54:04 22 6 9
11 86 Ayrton Badovini Team Pedercini 09:59:11 22 5 14
12 44 Roberto Rolfo Hannspree Honda Althea 10:00:21 22 4 20
13 38 Shinichi Nakatomi Yzf Yamaha 11:20:40 22 3 22
14 31 Karl Muggeridge D.f. Racing 11:22:59 22 2 21
15 34 Yukio Kagayama Team Suzuki Alstare 13:11:50 22 1 13
16 194 Sébastien Gimbert Yamaha France Gmt 94 Ipone 13:44:28 22 0 18
17 9 Chris Walker Ventaxia Vk Honda 13:53:33 22 0 28
18 88 Shuhei Aoyama Alto Evolution Honda Superbike 18:05:01 22 0 24
19 100 Makoto Tamada Kawasaki Psg-1 Corse 18:19:46 22 0 26
20 94 David Checa Yamaha France Gmt 94 Ipone 18:23:00 22 0 23
21 14 L Carreira Benimoto Suzuki Cetelem 00:02:54 21 0 29
22 76 Max Neukirchner Team Alstare 01:00:00 5 0 15
23 3 Max Biaggi Sterilgarda Go Eleven 01:00:00 7 0 4
24 13 Vittorio Iannuzzo Team Pedercini 01:00:00 7 0 27
25 84 Michel Fabrizio Ducati Xeros Team 01:00:00 8 0 5
26 73 Chris Zaiser Grillini Pbr Team 01:00:00 9 0 31
27 99 Luca Scassa D.f. Racing 01:00:00 10 0 30
28 18 Thomas Bridewell Team Nb 01:00:00 12 0 25
29 96 Jakub Smrz Guandalini Racing 01:00:00 14 0 12
30 41 Noriyuki Haga Yamaha Motor Italia Wsb Team 01:00:00 17 0 10
31 35 Cal Crutchlow HM Plant Honda 01:00:00 18 0 2

2

Position Numéro Pilote Team Temps Tours Points Départ
1 21 Troy Bayliss Ducati Xeros Team 17:35:25 22 25 1
2 84 Michel Fabrizio Ducati Xeros Team 18:36:03 22 20 5
3 91 Leon Haslam HM Plant Honda 18:48:01 22 16 6
4 76 Max Neukirchner Team Alstare 18:58:28 22 13 15
5 10 Fonsi Nieto Team Suzuki Alstare 19:28:20 22 11 16
6 11 Troy Corser Yamaha Motor Italia Wsb Team 19:38:48 22 10 7
7 7 Carlos Checa Hannspree Ten Kate Honda 19:41:43 22 9 11
8 36 Gregorio Lavilla Ventaxia Vk Honda 22:03:58 22 8 17
9 35 Cal Crutchlow HM Plant Honda 22:06:49 22 7 2
10 55 Regis Laconi Kawasaki Psg-1 Corse 22:09:31 22 6 9
11 23 Ryuichi Kiyonari Hannspree Ten Kate Honda 23:35:58 22 5 19
12 96 Jakub Smrz Guandalini Racing 23:43:43 22 4 12
13 3 Max Biaggi Sterilgarda Go Eleven 00:16:54 22 3 4
14 41 Noriyuki Haga Yamaha Motor Italia Wsb Team 00:17:22 22 2 10
15 65 Jonathan Rea Hannspree Honda Althea 02:12:08 22 1 3
16 86 Ayrton Badovini Team Pedercini 02:14:21 22 0 14
17 38 Shinichi Nakatomi Yzf Yamaha 02:17:35 22 0 22
18 44 Roberto Rolfo Hannspree Honda Althea 02:33:17 22 0 20
19 9 Chris Walker Ventaxia Vk Honda 03:02:54 22 0 28
20 194 Sébastien Gimbert Yamaha France Gmt 94 Ipone 03:19:13 22 0 18
21 31 Karl Muggeridge D.f. Racing 05:09:54 22 0 21
22 94 David Checa Yamaha France Gmt 94 Ipone 06:03:34 22 0 23
23 34 Yukio Kagayama Team Suzuki Alstare 06:44:51 22 0 13
24 100 Makoto Tamada Kawasaki Psg-1 Corse 07:07:38 22 0 26
25 18 Thomas Bridewell Team Nb 12:23:47 22 0 25
26 88 Shuhei Aoyama Alto Evolution Honda Superbike 14:12:47 22 0 24
27 99 Luca Scassa D.f. Racing 19:55:06 22 0 30
28 14 L Carreira Benimoto Suzuki Cetelem 20:37:31 22 0 29
29 73 Chris Zaiser Grillini Pbr Team 17:52:06 21 0 31
30 111 Ruben Xaus Sterilgarda Go Eleven 01:00:00 9 0 8
31 13 Vittorio Iannuzzo Team Pedercini 01:00:00 10 0 27